sensor_id;sensor_type;location;lat;lon;timestamp;P1;durP1;ratioP1;P2;durP2;ratioP2
55063;SDS011;40963;52.168;21.296;2023-08-07T00:00:35;1.15;;;0.30;;
55063;SDS011;40963;52.168;21.296;2023-08-07T00:03:01;0.95;;;0.30;;
55063;SDS011;40963;52.168;21.296;2023-08-07T00:05:27;1.05;;;0.30;;
55063;SDS011;40963;52.168;21.296;2023-08-07T00:07:53;4.97;;;0.43;;
55063;SDS011;40963;52.168;21.296;2023-08-07T00:10:19;4.55;;;0.50;;
55063;SDS011;40963;52.168;21.296;2023-08-07T00:12:44;1.95;;;0.25;;
55063;SDS011;40963;52.168;21.296;2023-08-07T00:15:10;0.30;;;0.22;;
55063;SDS011;40963;52.168;21.296;2023-08-07T00:17:36;0.45;;;0.38;;
55063;SDS011;40963;52.168;21.296;2023-08-07T00:20:02;1.15;;;0.30;;
55063;SDS011;40963;52.168;21.296;2023-08-07T00:22:29;4.38;;;0.30;;
55063;SDS011;40963;52.168;21.296;2023-08-07T00:24:55;1.13;;;0.30;;
55063;SDS011;40963;52.168;21.296;2023-08-07T00:27:20;0.30;;;0.30;;
55063;SDS011;40963;52.168;21.296;2023-08-07T00:29:46;0.73;;;0.22;;
55063;SDS011;40963;52.168;21.296;2023-08-07T00:32:11;1.55;;;0.35;;
55063;SDS011;40963;52.168;21.296;2023-08-07T00:34:37;0.85;;;0.40;;
55063;SDS011;40963;52.168;21.296;2023-08-07T00:37:02;0.82;;;0.20;;
55063;SDS011;40963;52.168;21.296;2023-08-07T00:39:28;0.35;;;0.35;;
55063;SDS011;40963;52.168;21.296;2023-08-07T00:41:54;0.20;;;0.20;;
55063;SDS011;40963;52.168;21.296;2023-08-07T00:44:19;0.30;;;0.30;;
55063;SDS011;40963;52.168;21.296;2023-08-07T00:46:45;0.73;;;0.30;;
55063;SDS011;40963;52.168;21.296;2023-08-07T00:49:12;0.30;;;0.30;;
55063;SDS011;40963;52.168;21.296;2023-08-07T00:51:38;0.30;;;0.25;;
55063;SDS011;40963;52.168;21.296;2023-08-07T00:54:05;0.20;;;0.20;;
55063;SDS011;40963;52.168;21.296;2023-08-07T00:56:32;3.70;;;0.30;;
55063;SDS011;40963;52.168;21.296;2023-08-07T00:58:58;2.60;;;0.40;;
55063;SDS011;40963;52.168;21.296;2023-08-07T01:01:25;1.55;;;0.40;;
55063;SDS011;40963;52.168;21.296;2023-08-07T01:03:51;0.10;;;0.10;;
55063;SDS011;40963;52.168;21.296;2023-08-07T01:06:17;0.22;;;0.22;;
55063;SDS011;40963;52.168;21.296;2023-08-07T01:08:43;0.30;;;0.30;;
55063;SDS011;40963;52.168;21.296;2023-08-07T01:11:22;1.65;;;0.40;;
55063;SDS011;40963;52.168;21.296;2023-08-07T01:16:57;0.32;;;0.30;;
55063;SDS011;40963;52.168;21.296;2023-08-07T01:19:40;0.45;;;0.45;;
55063;SDS011;40963;52.168;21.296;2023-08-07T01:22:10;3.25;;;0.45;;
55063;SDS011;40963;52.168;21.296;2023-08-07T01:24:37;0.47;;;0.47;;
55063;SDS011;40963;52.168;21.296;2023-08-07T01:32:36;0.40;;;0.40;;
55063;SDS011;40963;52.168;21.296;2023-08-07T01:35:22;0.68;;;0.68;;
55063;SDS011;40963;52.168;21.296;2023-08-07T01:37:51;1.05;;;0.68;;
55063;SDS011;40963;52.168;21.296;2023-08-07T01:40:19;0.47;;;0.47;;
55063;SDS011;40963;52.168;21.296;2023-08-07T01:42:46;1.10;;;0.60;;
55063;SDS011;40963;52.168;21.296;2023-08-07T01:45:13;0.65;;;0.60;;
55063;SDS011;40963;52.168;21.296;2023-08-07T01:47:39;0.60;;;0.60;;
55063;SDS011;40963;52.168;21.296;2023-08-07T01:50:04;0.60;;;0.60;;
55063;SDS011;40963;52.168;21.296;2023-08-07T01:52:31;2.85;;;0.80;;
55063;SDS011;40963;52.168;21.296;2023-08-07T01:54:57;6.78;;;0.93;;
55063;SDS011;40963;52.168;21.296;2023-08-07T01:57:23;0.93;;;0.70;;
55063;SDS011;40963;52.168;21.296;2023-08-07T01:59:48;0.80;;;0.80;;
55063;SDS011;40963;52.168;21.296;2023-08-07T02:02:14;0.75;;;0.75;;
55063;SDS011;40963;52.168;21.296;2023-08-07T02:04:40;3.00;;;1.10;;
55063;SDS011;40963;52.168;21.296;2023-08-07T02:07:05;0.70;;;0.70;;
55063;SDS011;40963;52.168;21.296;2023-08-07T02:09:31;2.35;;;0.80;;
55063;SDS011;40963;52.168;21.296;2023-08-07T02:11:56;1.33;;;0.82;;
55063;SDS011;40963;52.168;21.296;2023-08-07T02:14:22;4.97;;;1.10;;
55063;SDS011;40963;52.168;21.296;2023-08-07T02:16:47;1.10;;;1.00;;
55063;SDS011;40963;52.168;21.296;2023-08-07T02:19:13;0.80;;;0.80;;
55063;SDS011;40963;52.168;21.296;2023-08-07T02:21:39;0.70;;;0.70;;
55063;SDS011;40963;52.168;21.296;2023-08-07T02:24:04;2.88;;;0.90;;
55063;SDS011;40963;52.168;21.296;2023-08-07T02:26:30;1.35;;;0.98;;
55063;SDS011;40963;52.168;21.296;2023-08-07T02:28:55;0.80;;;0.80;;
55063;SDS011;40963;52.168;21.296;2023-08-07T02:31:21;0.80;;;0.80;;
55063;SDS011;40963;52.168;21.296;2023-08-07T02:33:47;4.20;;;1.10;;
55063;SDS011;40963;52.168;21.296;2023-08-07T02:36:12;2.85;;;1.08;;
55063;SDS011;40963;52.168;21.296;2023-08-07T02:38:38;2.30;;;0.90;;
55063;SDS011;40963;52.168;21.296;2023-08-07T02:41:03;1.00;;;1.00;;
55063;SDS011;40963;52.168;21.296;2023-08-07T02:43:29;1.17;;;1.08;;
55063;SDS011;40963;52.168;21.296;2023-08-07T02:45:58;1.73;;;0.82;;
55063;SDS011;40963;52.168;21.296;2023-08-07T02:48:23;8.02;;;1.17;;
55063;SDS011;40963;52.168;21.296;2023-08-07T02:50:49;1.85;;;0.95;;
55063;SDS011;40963;52.168;21.296;2023-08-07T02:53:16;1.27;;;1.08;;
55063;SDS011;40963;52.168;21.296;2023-08-07T02:55:45;1.33;;;1.20;;
55063;SDS011;40963;52.168;21.296;2023-08-07T02:58:10;5.13;;;1.23;;
55063;SDS011;40963;52.168;21.296;2023-08-07T03:00:36;2.45;;;1.13;;
55063;SDS011;40963;52.168;21.296;2023-08-07T03:03:02;2.13;;;0.98;;
55063;SDS011;40963;52.168;21.296;2023-08-07T03:05:27;1.20;;;1.10;;
55063;SDS011;40963;52.168;21.296;2023-08-07T03:07:53;1.30;;;1.00;;
55063;SDS011;40963;52.168;21.296;2023-08-07T03:10:19;1.00;;;0.88;;
55063;SDS011;40963;52.168;21.296;2023-08-07T03:12:45;5.18;;;1.25;;
55063;SDS011;40963;52.168;21.296;2023-08-07T03:15:11;1.77;;;0.90;;
55063;SDS011;40963;52.168;21.296;2023-08-07T03:17:37;3.05;;;1.10;;
55063;SDS011;40963;52.168;21.296;2023-08-07T03:20:02;0.98;;;0.98;;
55063;SDS011;40963;52.168;21.296;2023-08-07T03:22:29;1.48;;;1.25;;
55063;SDS011;40963;52.168;21.296;2023-08-07T03:24:54;2.58;;;1.10;;
55063;SDS011;40963;52.168;21.296;2023-08-07T03:27:20;1.58;;;1.02;;
55063;SDS011;40963;52.168;21.296;2023-08-07T03:29:46;1.83;;;1.02;;
55063;SDS011;40963;52.168;21.296;2023-08-07T03:32:11;0.95;;;0.95;;
55063;SDS011;40963;52.168;21.296;2023-08-07T03:34:37;1.40;;;1.00;;
55063;SDS011;40963;52.168;21.296;2023-08-07T03:37:03;4.72;;;1.13;;
55063;SDS011;40963;52.168;21.296;2023-08-07T03:39:29;1.45;;;1.10;;
55063;SDS011;40963;52.168;21.296;2023-08-07T03:41:54;1.40;;;0.85;;
55063;SDS011;40963;52.168;21.296;2023-08-07T03:44:20;1.00;;;1.00;;
55063;SDS011;40963;52.168;21.296;2023-08-07T03:46:45;1.27;;;0.90;;
55063;SDS011;40963;52.168;21.296;2023-08-07T03:49:11;0.88;;;0.88;;
55063;SDS011;40963;52.168;21.296;2023-08-07T03:51:37;0.93;;;0.88;;
55063;SDS011;40963;52.168;21.296;2023-08-07T03:54:02;2.50;;;0.90;;
55063;SDS011;40963;52.168;21.296;2023-08-07T03:56:28;1.23;;;1.13;;
55063;SDS011;40963;52.168;21.296;2023-08-07T03:58:57;2.90;;;1.00;;
55063;SDS011;40963;52.168;21.296;2023-08-07T04:01:23;2.92;;;1.00;;
55063;SDS011;40963;52.168;21.296;2023-08-07T04:03:48;3.60;;;1.10;;
55063;SDS011;40963;52.168;21.296;2023-08-07T04:06:14;3.25;;;1.30;;
55063;SDS011;40963;52.168;21.296;2023-08-07T04:08:42;1.00;;;0.98;;
55063;SDS011;40963;52.168;21.296;2023-08-07T04:11:09;1.55;;;1.27;;
55063;SDS011;40963;52.168;21.296;2023-08-07T04:13:35;1.67;;;1.15;;
55063;SDS011;40963;52.168;21.296;2023-08-07T04:16:01;1.67;;;1.58;;
55063;SDS011;40963;52.168;21.296;2023-08-07T04:18:29;3.60;;;1.35;;
55063;SDS011;40963;52.168;21.296;2023-08-07T04:20:55;4.07;;;1.58;;
55063;SDS011;40963;52.168;21.296;2023-08-07T04:23:21;4.18;;;1.50;;
55063;SDS011;40963;52.168;21.296;2023-08-07T04:25:48;3.13;;;1.50;;
55063;SDS011;40963;52.168;21.296;2023-08-07T04:28:13;1.23;;;1.20;;
55063;SDS011;40963;52.168;21.296;2023-08-07T04:30:43;7.32;;;1.38;;
55063;SDS011;40963;52.168;21.296;2023-08-07T04:33:09;3.83;;;1.55;;
55063;SDS011;40963;52.168;21.296;2023-08-07T04:35:35;1.50;;;1.40;;
55063;SDS011;40963;52.168;21.296;2023-08-07T04:38:01;1.45;;;1.33;;
55063;SDS011;40963;52.168;21.296;2023-08-07T04:40:27;1.60;;;1.40;;
55063;SDS011;40963;52.168;21.296;2023-08-07T04:42:53;1.70;;;1.60;;
55063;SDS011;40963;52.168;21.296;2023-08-07T04:45:20;4.63;;;1.30;;
55063;SDS011;40963;52.168;21.296;2023-08-07T04:47:46;1.77;;;1.40;;
55063;SDS011;40963;52.168;21.296;2023-08-07T04:50:12;2.13;;;1.50;;
55063;SDS011;40963;52.168;21.296;2023-08-07T04:52:37;2.67;;;1.60;;
55063;SDS011;40963;52.168;21.296;2023-08-07T04:55:03;2.17;;;1.40;;
55063;SDS011;40963;52.168;21.296;2023-08-07T04:57:30;1.65;;;1.55;;
55063;SDS011;40963;52.168;21.296;2023-08-07T04:59:55;1.83;;;1.50;;
55063;SDS011;40963;52.168;21.296;2023-08-07T05:02:21;2.08;;;1.50;;
55063;SDS011;40963;52.168;21.296;2023-08-07T05:04:46;1.40;;;1.20;;
55063;SDS011;40963;52.168;21.296;2023-08-07T05:07:12;3.67;;;1.33;;
55063;SDS011;40963;52.168;21.296;2023-08-07T05:09:38;3.08;;;1.63;;
55063;SDS011;40963;52.168;21.296;2023-08-07T05:12:04;1.58;;;1.17;;
55063;SDS011;40963;52.168;21.296;2023-08-07T05:14:31;1.45;;;1.35;;
55063;SDS011;40963;52.168;21.296;2023-08-07T05:16:57;3.28;;;1.13;;
55063;SDS011;40963;52.168;21.296;2023-08-07T05:19:23;1.77;;;1.35;;
55063;SDS011;40963;52.168;21.296;2023-08-07T05:21:48;1.33;;;1.23;;
55063;SDS011;40963;52.168;21.296;2023-08-07T05:24:16;5.03;;;1.20;;
55063;SDS011;40963;52.168;21.296;2023-08-07T05:26:44;1.50;;;1.40;;
55063;SDS011;40963;52.168;21.296;2023-08-07T05:29:10;1.02;;;1.02;;
55063;SDS011;40963;52.168;21.296;2023-08-07T05:31:36;1.08;;;1.05;;
55063;SDS011;40963;52.168;21.296;2023-08-07T05:34:02;5.85;;;1.20;;
55063;SDS011;40963;52.168;21.296;2023-08-07T05:36:28;1.77;;;1.10;;
55063;SDS011;40963;52.168;21.296;2023-08-07T05:38:55;1.13;;;0.90;;
55063;SDS011;40963;52.168;21.296;2023-08-07T05:41:20;1.35;;;1.25;;
55063;SDS011;40963;52.168;21.296;2023-08-07T05:43:46;1.45;;;1.20;;
55063;SDS011;40963;52.168;21.296;2023-08-07T05:46:11;1.17;;;1.08;;
55063;SDS011;40963;52.168;21.296;2023-08-07T05:48:37;1.00;;;1.00;;
55063;SDS011;40963;52.168;21.296;2023-08-07T05:51:03;0.90;;;0.90;;
55063;SDS011;40963;52.168;21.296;2023-08-07T05:53:29;3.55;;;1.00;;
55063;SDS011;40963;52.168;21.296;2023-08-07T05:55:54;2.08;;;1.20;;
55063;SDS011;40963;52.168;21.296;2023-08-07T05:58:20;1.20;;;1.10;;
55063;SDS011;40963;52.168;21.296;2023-08-07T06:00:46;1.30;;;1.20;;
55063;SDS011;40963;52.168;21.296;2023-08-07T06:03:12;7.32;;;1.30;;
55063;SDS011;40963;52.168;21.296;2023-08-07T06:05:37;1.60;;;1.48;;
55063;SDS011;40963;52.168;21.296;2023-08-07T06:08:03;1.58;;;1.20;;
55063;SDS011;40963;52.168;21.296;2023-08-07T06:10:29;2.40;;;1.30;;
55063;SDS011;40963;52.168;21.296;2023-08-07T06:12:54;1.27;;;1.17;;
55063;SDS011;40963;52.168;21.296;2023-08-07T06:15:20;1.40;;;1.30;;
55063;SDS011;40963;52.168;21.296;2023-08-07T06:17:45;1.70;;;1.17;;
55063;SDS011;40963;52.168;21.296;2023-08-07T06:20:11;2.13;;;1.55;;
55063;SDS011;40963;52.168;21.296;2023-08-07T06:22:39;3.92;;;1.50;;
55063;SDS011;40963;52.168;21.296;2023-08-07T06:25:05;1.90;;;1.70;;
55063;SDS011;40963;52.168;21.296;2023-08-07T06:27:31;1.90;;;1.70;;
55063;SDS011;40963;52.168;21.296;2023-08-07T06:29:57;2.83;;;1.65;;
55063;SDS011;40963;52.168;21.296;2023-08-07T06:32:24;1.80;;;1.60;;
55063;SDS011;40963;52.168;21.296;2023-08-07T06:34:50;1.63;;;1.52;;
55063;SDS011;40963;52.168;21.296;2023-08-07T06:37:16;1.75;;;1.65;;
55063;SDS011;40963;52.168;21.296;2023-08-07T06:39:41;1.95;;;1.40;;
55063;SDS011;40963;52.168;21.296;2023-08-07T06:42:07;3.72;;;1.75;;
55063;SDS011;40963;52.168;21.296;2023-08-07T06:44:33;2.78;;;1.75;;
55063;SDS011;40963;52.168;21.296;2023-08-07T06:46:58;1.80;;;1.70;;
55063;SDS011;40963;52.168;21.296;2023-08-07T06:49:24;1.52;;;1.42;;
55063;SDS011;40963;52.168;21.296;2023-08-07T06:51:50;1.58;;;1.48;;
55063;SDS011;40963;52.168;21.296;2023-08-07T06:54:15;1.70;;;1.60;;
55063;SDS011;40963;52.168;21.296;2023-08-07T06:56:41;1.98;;;1.40;;
55063;SDS011;40963;52.168;21.296;2023-08-07T06:59:08;1.60;;;1.50;;
55063;SDS011;40963;52.168;21.296;2023-08-07T07:01:34;1.60;;;1.50;;
55063;SDS011;40963;52.168;21.296;2023-08-07T07:03:59;2.13;;;1.38;;
55063;SDS011;40963;52.168;21.296;2023-08-07T07:06:25;1.40;;;1.30;;
55063;SDS011;40963;52.168;21.296;2023-08-07T07:08:51;1.17;;;1.00;;
55063;SDS011;40963;52.168;21.296;2023-08-07T07:11:20;1.15;;;1.02;;
55063;SDS011;40963;52.168;21.296;2023-08-07T07:13:47;0.93;;;0.93;;
55063;SDS011;40963;52.168;21.296;2023-08-07T07:16:14;1.40;;;1.23;;
55063;SDS011;40963;52.168;21.296;2023-08-07T07:18:40;1.20;;;0.93;;
55063;SDS011;40963;52.168;21.296;2023-08-07T07:21:05;2.47;;;1.17;;
55063;SDS011;40963;52.168;21.296;2023-08-07T07:23:31;0.98;;;0.98;;
55063;SDS011;40963;52.168;21.296;2023-08-07T07:25:56;1.15;;;1.05;;
55063;SDS011;40963;52.168;21.296;2023-08-07T07:28:23;1.10;;;1.00;;
55063;SDS011;40963;52.168;21.296;2023-08-07T07:30:51;1.25;;;1.15;;
55063;SDS011;40963;52.168;21.296;2023-08-07T07:33:17;1.15;;;1.00;;
55063;SDS011;40963;52.168;21.296;2023-08-07T07:35:43;1.67;;;0.90;;
55063;SDS011;40963;52.168;21.296;2023-08-07T07:38:09;1.35;;;1.08;;
55063;SDS011;40963;52.168;21.296;2023-08-07T07:40:36;1.10;;;1.00;;
55063;SDS011;40963;52.168;21.296;2023-08-07T07:43:02;3.13;;;1.02;;
55063;SDS011;40963;52.168;21.296;2023-08-07T07:45:28;0.90;;;0.90;;
55063;SDS011;40963;52.168;21.296;2023-08-07T07:47:54;0.90;;;0.90;;
55063;SDS011;40963;52.168;21.296;2023-08-07T07:50:20;3.47;;;1.13;;
55063;SDS011;40963;52.168;21.296;2023-08-07T07:52:46;0.80;;;0.80;;
55063;SDS011;40963;52.168;21.296;2023-08-07T07:55:11;1.40;;;1.00;;
55063;SDS011;40963;52.168;21.296;2023-08-07T07:57:38;1.85;;;1.20;;
55063;SDS011;40963;52.168;21.296;2023-08-07T08:00:05;1.20;;;1.10;;
55063;SDS011;40963;52.168;21.296;2023-08-07T08:02:35;0.98;;;0.90;;
55063;SDS011;40963;52.168;21.296;2023-08-07T08:05:06;1.08;;;0.90;;
55063;SDS011;40963;52.168;21.296;2023-08-07T08:07:32;1.30;;;1.20;;
55063;SDS011;40963;52.168;21.296;2023-08-07T08:09:59;1.23;;;1.10;;
55063;SDS011;40963;52.168;21.296;2023-08-07T08:12:25;1.30;;;1.20;;
55063;SDS011;40963;52.168;21.296;2023-08-07T08:14:51;4.97;;;1.40;;
55063;SDS011;40963;52.168;21.296;2023-08-07T08:17:17;1.23;;;0.90;;
55063;SDS011;40963;52.168;21.296;2023-08-07T08:19:42;1.13;;;1.02;;
55063;SDS011;40963;52.168;21.296;2023-08-07T08:22:08;1.92;;;1.27;;
55063;SDS011;40963;52.168;21.296;2023-08-07T08:24:34;1.35;;;1.17;;
55063;SDS011;40963;52.168;21.296;2023-08-07T08:27:00;2.75;;;1.20;;
55063;SDS011;40963;52.168;21.296;2023-08-07T08:29:26;1.27;;;1.17;;
55063;SDS011;40963;52.168;21.296;2023-08-07T08:31:53;1.30;;;1.20;;
55063;SDS011;40963;52.168;21.296;2023-08-07T08:34:20;2.90;;;1.20;;
55063;SDS011;40963;52.168;21.296;2023-08-07T08:36:46;2.20;;;1.30;;
55063;SDS011;40963;52.168;21.296;2023-08-07T08:39:12;2.42;;;1.20;;
55063;SDS011;40963;52.168;21.296;2023-08-07T08:41:38;3.55;;;1.10;;
55063;SDS011;40963;52.168;21.296;2023-08-07T08:44:06;1.58;;;1.48;;
55063;SDS011;40963;52.168;21.296;2023-08-07T08:46:33;1.98;;;1.10;;
55063;SDS011;40963;52.168;21.296;2023-08-07T08:49:00;1.92;;;1.08;;
55063;SDS011;40963;52.168;21.296;2023-08-07T08:51:28;1.33;;;1.23;;
55063;SDS011;40963;52.168;21.296;2023-08-07T08:53:54;1.50;;;1.27;;
55063;SDS011;40963;52.168;21.296;2023-08-07T08:56:21;1.20;;;1.10;;
55063;SDS011;40963;52.168;21.296;2023-08-07T08:58:48;1.40;;;1.30;;
55063;SDS011;40963;52.168;21.296;2023-08-07T09:01:17;6.28;;;1.08;;
55063;SDS011;40963;52.168;21.296;2023-08-07T09:03:46;5.53;;;1.02;;
55063;SDS011;40963;52.168;21.296;2023-08-07T09:06:12;1.75;;;1.50;;
55063;SDS011;40963;52.168;21.296;2023-08-07T09:08:42;1.40;;;1.30;;
55063;SDS011;40963;52.168;21.296;2023-08-07T09:11:11;2.08;;;1.30;;
55063;SDS011;40963;52.168;21.296;2023-08-07T09:13:39;6.38;;;1.40;;
55063;SDS011;40963;52.168;21.296;2023-08-07T09:16:07;1.60;;;1.27;;
55063;SDS011;40963;52.168;21.296;2023-08-07T09:18:34;2.67;;;1.50;;
55063;SDS011;40963;52.168;21.296;2023-08-07T09:21:00;1.95;;;1.30;;
55063;SDS011;40963;52.168;21.296;2023-08-07T09:23:26;1.48;;;1.10;;
55063;SDS011;40963;52.168;21.296;2023-08-07T09:25:59;1.55;;;1.10;;
55063;SDS011;40963;52.168;21.296;2023-08-07T09:28:33;1.08;;;0.90;;
55063;SDS011;40963;52.168;21.296;2023-08-07T09:30:59;0.90;;;0.90;;
55063;SDS011;40963;52.168;21.296;2023-08-07T09:33:27;3.58;;;1.00;;
55063;SDS011;40963;52.168;21.296;2023-08-07T09:35:58;1.17;;;1.08;;
55063;SDS011;40963;52.168;21.296;2023-08-07T09:38:28;1.65;;;0.98;;
55063;SDS011;40963;52.168;21.296;2023-08-07T09:40:58;6.72;;;1.00;;
55063;SDS011;40963;52.168;21.296;2023-08-07T09:43:25;1.27;;;0.90;;
55063;SDS011;40963;52.168;21.296;2023-08-07T09:45:50;1.00;;;0.90;;
55063;SDS011;40963;52.168;21.296;2023-08-07T09:48:22;1.23;;;1.10;;
55063;SDS011;40963;52.168;21.296;2023-08-07T09:50:50;1.48;;;1.00;;
55063;SDS011;40963;52.168;21.296;2023-08-07T09:53:15;1.92;;;1.00;;
55063;SDS011;40963;52.168;21.296;2023-08-07T09:55:41;0.75;;;0.75;;
55063;SDS011;40963;52.168;21.296;2023-08-07T09:58:08;0.82;;;0.73;;
55063;SDS011;40963;52.168;21.296;2023-08-07T10:00:36;5.13;;;1.02;;
55063;SDS011;40963;52.168;21.296;2023-08-07T10:03:02;1.25;;;0.70;;
55063;SDS011;40963;52.168;21.296;2023-08-07T10:05:29;2.83;;;0.80;;
55063;SDS011;40963;52.168;21.296;2023-08-07T10:07:55;2.95;;;0.77;;
55063;SDS011;40963;52.168;21.296;2023-08-07T10:10:22;1.67;;;0.75;;
55063;SDS011;40963;52.168;21.296;2023-08-07T10:12:50;2.45;;;0.75;;
55063;SDS011;40963;52.168;21.296;2023-08-07T10:15:16;2.47;;;0.80;;
55063;SDS011;40963;52.168;21.296;2023-08-07T10:17:43;0.80;;;0.80;;
55063;SDS011;40963;52.168;21.296;2023-08-07T10:20:09;2.15;;;0.88;;
55063;SDS011;40963;52.168;21.296;2023-08-07T10:22:35;1.80;;;0.80;;
55063;SDS011;40963;52.168;21.296;2023-08-07T10:25:03;4.25;;;1.20;;
55063;SDS011;40963;52.168;21.296;2023-08-07T10:27:31;3.35;;;0.63;;
55063;SDS011;40963;52.168;21.296;2023-08-07T10:30:00;0.95;;;0.68;;
55063;SDS011;40963;52.168;21.296;2023-08-07T10:32:29;0.60;;;0.50;;
55063;SDS011;40963;52.168;21.296;2023-08-07T10:34:55;0.65;;;0.50;;
55063;SDS011;40963;52.168;21.296;2023-08-07T10:37:43;2.03;;;0.65;;
55063;SDS011;40963;52.168;21.296;2023-08-07T10:40:09;0.85;;;0.65;;
55063;SDS011;40963;52.168;21.296;2023-08-07T10:45:25;1.15;;;0.68;;
55063;SDS011;40963;52.168;21.296;2023-08-07T10:50:32;0.60;;;0.60;;
55063;SDS011;40963;52.168;21.296;2023-08-07T10:52:59;1.85;;;0.93;;
55063;SDS011;40963;52.168;21.296;2023-08-07T10:55:42;4.90;;;0.70;;
55063;SDS011;40963;52.168;21.296;2023-08-07T11:00:49;2.42;;;1.00;;
55063;SDS011;40963;52.168;21.296;2023-08-07T11:03:35;1.73;;;0.70;;
55063;SDS011;40963;52.168;21.296;2023-08-07T11:06:01;0.70;;;0.70;;
55063;SDS011;40963;52.168;21.296;2023-08-07T11:08:27;0.77;;;0.75;;
55063;SDS011;40963;52.168;21.296;2023-08-07T11:10:53;1.33;;;1.00;;
55063;SDS011;40963;52.168;21.296;2023-08-07T11:13:20;0.70;;;0.70;;
55063;SDS011;40963;52.168;21.296;2023-08-07T11:15:45;1.08;;;0.77;;
55063;SDS011;40963;52.168;21.296;2023-08-07T11:18:12;1.10;;;0.80;;
55063;SDS011;40963;52.168;21.296;2023-08-07T11:20:38;2.00;;;0.95;;
55063;SDS011;40963;52.168;21.296;2023-08-07T11:23:04;1.10;;;0.80;;
55063;SDS011;40963;52.168;21.296;2023-08-07T11:25:31;2.88;;;0.70;;
55063;SDS011;40963;52.168;21.296;2023-08-07T11:27:56;1.10;;;0.82;;
55063;SDS011;40963;52.168;21.296;2023-08-07T11:30:23;1.63;;;0.70;;
55063;SDS011;40963;52.168;21.296;2023-08-07T11:32:49;0.63;;;0.63;;
55063;SDS011;40963;52.168;21.296;2023-08-07T11:35:15;1.55;;;0.80;;
55063;SDS011;40963;52.168;21.296;2023-08-07T11:37:47;2.60;;;1.00;;
55063;SDS011;40963;52.168;21.296;2023-08-07T11:40:13;1.08;;;0.80;;
55063;SDS011;40963;52.168;21.296;2023-08-07T11:42:39;2.85;;;0.95;;
55063;SDS011;40963;52.168;21.296;2023-08-07T11:45:06;1.00;;;0.70;;
55063;SDS011;40963;52.168;21.296;2023-08-07T11:47:32;2.30;;;0.90;;
55063;SDS011;40963;52.168;21.296;2023-08-07T11:49:58;1.13;;;0.80;;
55063;SDS011;40963;52.168;21.296;2023-08-07T11:52:24;0.57;;;0.50;;
55063;SDS011;40963;52.168;21.296;2023-08-07T11:54:50;2.53;;;0.60;;
55063;SDS011;40963;52.168;21.296;2023-08-07T11:57:18;3.22;;;0.80;;
55063;SDS011;40963;52.168;21.296;2023-08-07T11:59:49;0.95;;;0.80;;
55063;SDS011;40963;52.168;21.296;2023-08-07T12:02:15;11.80;;;0.88;;
55063;SDS011;40963;52.168;21.296;2023-08-07T12:04:41;1.27;;;0.73;;
55063;SDS011;40963;52.168;21.296;2023-08-07T12:07:07;2.13;;;0.60;;
55063;SDS011;40963;52.168;21.296;2023-08-07T12:09:35;1.15;;;0.82;;
55063;SDS011;40963;52.168;21.296;2023-08-07T12:12:02;0.70;;;0.70;;
55063;SDS011;40963;52.168;21.296;2023-08-07T12:14:31;1.00;;;0.65;;
55063;SDS011;40963;52.168;21.296;2023-08-07T12:16:57;3.03;;;0.70;;
55063;SDS011;40963;52.168;21.296;2023-08-07T12:19:34;1.27;;;0.90;;
55063;SDS011;40963;52.168;21.296;2023-08-07T12:22:01;1.70;;;0.75;;
55063;SDS011;40963;52.168;21.296;2023-08-07T12:24:29;0.88;;;0.82;;
55063;SDS011;40963;52.168;21.296;2023-08-07T12:26:54;4.20;;;0.90;;
55063;SDS011;40963;52.168;21.296;2023-08-07T12:29:20;0.77;;;0.77;;
55063;SDS011;40963;52.168;21.296;2023-08-07T12:31:45;0.80;;;0.80;;
55063;SDS011;40963;52.168;21.296;2023-08-07T12:34:11;1.88;;;0.82;;
55063;SDS011;40963;52.168;21.296;2023-08-07T12:36:36;1.02;;;0.80;;
55063;SDS011;40963;52.168;21.296;2023-08-07T12:39:02;1.30;;;0.90;;
55063;SDS011;40963;52.168;21.296;2023-08-07T12:41:28;0.80;;;0.70;;
55063;SDS011;40963;52.168;21.296;2023-08-07T12:43:53;0.82;;;0.80;;
55063;SDS011;40963;52.168;21.296;2023-08-07T12:46:19;3.85;;;1.05;;
55063;SDS011;40963;52.168;21.296;2023-08-07T12:48:45;0.70;;;0.70;;
55063;SDS011;40963;52.168;21.296;2023-08-07T12:51:10;1.05;;;0.60;;
55063;SDS011;40963;52.168;21.296;2023-08-07T12:53:36;9.50;;;1.25;;
55063;SDS011;40963;52.168;21.296;2023-08-07T12:56:01;1.70;;;0.82;;
55063;SDS011;40963;52.168;21.296;2023-08-07T12:58:28;1.50;;;0.82;;
55063;SDS011;40963;52.168;21.296;2023-08-07T13:00:54;1.15;;;0.70;;
55063;SDS011;40963;52.168;21.296;2023-08-07T13:03:20;2.25;;;1.05;;
55063;SDS011;40963;52.168;21.296;2023-08-07T13:05:45;1.92;;;1.00;;
55063;SDS011;40963;52.168;21.296;2023-08-07T13:08:11;1.55;;;0.90;;
55063;SDS011;40963;52.168;21.296;2023-08-07T13:10:37;3.33;;;1.00;;
55063;SDS011;40963;52.168;21.296;2023-08-07T13:13:04;1.75;;;1.00;;
55063;SDS011;40963;52.168;21.296;2023-08-07T13:15:30;2.97;;;0.80;;
55063;SDS011;40963;52.168;21.296;2023-08-07T13:17:56;1.02;;;0.90;;
55063;SDS011;40963;52.168;21.296;2023-08-07T13:20:21;5.25;;;0.82;;
55063;SDS011;40963;52.168;21.296;2023-08-07T13:22:47;1.60;;;0.85;;
55063;SDS011;40963;52.168;21.296;2023-08-07T13:25:13;1.98;;;0.90;;
55063;SDS011;40963;52.168;21.296;2023-08-07T13:27:39;0.70;;;0.63;;
55063;SDS011;40963;52.168;21.296;2023-08-07T13:30:05;2.47;;;0.80;;
55063;SDS011;40963;52.168;21.296;2023-08-07T13:32:32;1.88;;;0.90;;
55063;SDS011;40963;52.168;21.296;2023-08-07T13:34:58;3.22;;;1.10;;
55063;SDS011;40963;52.168;21.296;2023-08-07T13:37:23;1.65;;;0.80;;
55063;SDS011;40963;52.168;21.296;2023-08-07T13:39:49;1.85;;;0.85;;
55063;SDS011;40963;52.168;21.296;2023-08-07T13:42:17;5.20;;;0.95;;
55063;SDS011;40963;52.168;21.296;2023-08-07T13:44:43;1.63;;;0.90;;
55063;SDS011;40963;52.168;21.296;2023-08-07T13:47:09;2.03;;;0.90;;
55063;SDS011;40963;52.168;21.296;2023-08-07T13:49:35;4.07;;;1.05;;
55063;SDS011;40963;52.168;21.296;2023-08-07T13:52:01;1.27;;;1.00;;
55063;SDS011;40963;52.168;21.296;2023-08-07T13:54:27;0.98;;;0.95;;
55063;SDS011;40963;52.168;21.296;2023-08-07T13:56:53;3.65;;;1.02;;
55063;SDS011;40963;52.168;21.296;2023-08-07T13:59:19;2.15;;;1.23;;
55063;SDS011;40963;52.168;21.296;2023-08-07T14:01:44;2.13;;;1.10;;
55063;SDS011;40963;52.168;21.296;2023-08-07T14:04:10;3.90;;;1.00;;
55063;SDS011;40963;52.168;21.296;2023-08-07T14:06:35;1.17;;;1.08;;
55063;SDS011;40963;52.168;21.296;2023-08-07T14:09:02;4.65;;;0.90;;
55063;SDS011;40963;52.168;21.296;2023-08-07T14:11:28;0.98;;;0.98;;
55063;SDS011;40963;52.168;21.296;2023-08-07T14:13:58;7.72;;;1.20;;
55063;SDS011;40963;52.168;21.296;2023-08-07T14:16:24;2.25;;;1.17;;
55063;SDS011;40963;52.168;21.296;2023-08-07T14:18:50;0.80;;;0.80;;
55063;SDS011;40963;52.168;21.296;2023-08-07T14:21:16;3.72;;;1.48;;
55063;SDS011;40963;52.168;21.296;2023-08-07T14:23:42;1.35;;;1.08;;
55063;SDS011;40963;52.168;21.296;2023-08-07T14:26:10;1.77;;;1.10;;
55063;SDS011;40963;52.168;21.296;2023-08-07T14:28:36;1.58;;;1.00;;
55063;SDS011;40963;52.168;21.296;2023-08-07T14:31:05;2.65;;;1.30;;
55063;SDS011;40963;52.168;21.296;2023-08-07T14:33:32;1.75;;;1.23;;
55063;SDS011;40963;52.168;21.296;2023-08-07T14:35:58;1.38;;;1.00;;
55063;SDS011;40963;52.168;21.296;2023-08-07T14:38:25;2.55;;;1.17;;
55063;SDS011;40963;52.168;21.296;2023-08-07T14:40:51;3.67;;;1.17;;
55063;SDS011;40963;52.168;21.296;2023-08-07T14:43:16;1.50;;;1.13;;
55063;SDS011;40963;52.168;21.296;2023-08-07T14:45:42;2.03;;;0.90;;